sensor_id;sensor_type;location;lat;lon;timestamp;temperature;humidity
8105;DHT22;4095;48.942;9.104;2024-02-15T00:01:57;13.20;99.90
8105;DHT22;4095;48.942;9.104;2024-02-15T00:04:23;13.20;99.90
8105;DHT22;4095;48.942;9.104;2024-02-15T00:06:48;13.20;99.90
8105;DHT22;4095;48.942;9.104;2024-02-15T00:09:14;13.20;99.90
8105;DHT22;4095;48.942;9.104;2024-02-15T00:11:39;13.20;99.90
8105;DHT22;4095;48.942;9.104;2024-02-15T00:14:05;13.20;99.90
8105;DHT22;4095;48.942;9.104;2024-02-15T00:16:31;13.20;99.90
8105;DHT22;4095;48.942;9.104;2024-02-15T00:18:56;13.20;99.90
8105;DHT22;4095;48.942;9.104;2024-02-15T00:21:23;13.20;99.90
8105;DHT22;4095;48.942;9.104;2024-02-15T00:23:49;13.20;99.90
8105;DHT22;4095;48.942;9.104;2024-02-15T00:26:15;13.20;99.90
8105;DHT22;4095;48.942;9.104;2024-02-15T00:28:43;13.20;99.90
8105;DHT22;4095;48.942;9.104;2024-02-15T00:31:09;13.20;99.90
8105;DHT22;4095;48.942;9.104;2024-02-15T00:33:35;13.20;99.90
8105;DHT22;4095;48.942;9.104;2024-02-15T00:36:04;13.20;99.90
8105;DHT22;4095;48.942;9.104;2024-02-15T00:38:31;13.10;99.90
8105;DHT22;4095;48.942;9.104;2024-02-15T00:40:57;13.10;99.90
8105;DHT22;4095;48.942;9.104;2024-02-15T00:43:26;13.10;99.90
8105;DHT22;4095;48.942;9.104;2024-02-15T00:45:52;13.00;99.90
8105;DHT22;4095;48.942;9.104;2024-02-15T00:48:17;13.00;99.90
8105;DHT22;4095;48.942;9.104;2024-02-15T00:50:43;13.00;99.90
8105;DHT22;4095;48.942;9.104;2024-02-15T00:53:08;13.00;99.90
8105;DHT22;4095;48.942;9.104;2024-02-15T00:55:34;12.90;99.90
8105;DHT22;4095;48.942;9.104;2024-02-15T00:58:00;12.90;99.90
8105;DHT22;4095;48.942;9.104;2024-02-15T01:00:25;12.90;99.90
8105;DHT22;4095;48.942;9.104;2024-02-15T01:02:51;12.80;99.90
8105;DHT22;4095;48.942;9.104;2024-02-15T01:05:18;12.80;99.90
8105;DHT22;4095;48.942;9.104;2024-02-15T01:07:44;12.70;99.90
8105;DHT22;4095;48.942;9.104;2024-02-15T01:10:10;12.60;99.90
8105;DHT22;4095;48.942;9.104;2024-02-15T01:12:35;12.60;99.90
8105;DHT22;4095;48.942;9.104;2024-02-15T01:15:01;12.50;99.90
8105;DHT22;4095;48.942;9.104;2024-02-15T01:17:28;12.50;99.90
8105;DHT22;4095;48.942;9.104;2024-02-15T01:19:54;12.40;99.90
8105;DHT22;4095;48.942;9.104;2024-02-15T01:22:20;12.30;99.90
8105;DHT22;4095;48.942;9.104;2024-02-15T01:24:49;12.20;99.90
8105;DHT22;4095;48.942;9.104;2024-02-15T01:27:14;12.10;99.90
8105;DHT22;4095;48.942;9.104;2024-02-15T01:29:40;12.00;99.90
8105;DHT22;4095;48.942;9.104;2024-02-15T01:32:05;11.90;99.90
8105;DHT22;4095;48.942;9.104;2024-02-15T01:34:31;11.80;99.90
8105;DHT22;4095;48.942;9.104;2024-02-15T01:36:57;11.70;99.90
8105;DHT22;4095;48.942;9.104;2024-02-15T01:39:23;11.70;99.90
8105;DHT22;4095;48.942;9.104;2024-02-15T01:41:49;11.70;99.90
8105;DHT22;4095;48.942;9.104;2024-02-15T01:44:19;11.60;99.90
8105;DHT22;4095;48.942;9.104;2024-02-15T01:46:47;11.70;99.90
8105;DHT22;4095;48.942;9.104;2024-02-15T01:49:13;11.70;99.90
8105;DHT22;4095;48.942;9.104;2024-02-15T01:51:39;11.70;99.90
8105;DHT22;4095;48.942;9.104;2024-02-15T01:54:09;11.70;99.90
8105;DHT22;4095;48.942;9.104;2024-02-15T01:56:35;11.60;99.90
8105;DHT22;4095;48.942;9.104;2024-02-15T01:59:02;11.60;99.90
8105;DHT22;4095;48.942;9.104;2024-02-15T02:01:30;11.60;99.90
8105;DHT22;4095;48.942;9.104;2024-02-15T02:03:58;11.60;99.90
8105;DHT22;4095;48.942;9.104;2024-02-15T02:06:24;11.50;99.90
8105;DHT22;4095;48.942;9.104;2024-02-15T02:08:50;11.50;99.90
8105;DHT22;4095;48.942;9.104;2024-02-15T02:11:15;11.40;99.90
8105;DHT22;4095;48.942;9.104;2024-02-15T02:13:41;11.40;99.90
8105;DHT22;4095;48.942;9.104;2024-02-15T02:16:27;11.40;99.90
8105;DHT22;4095;48.942;9.104;2024-02-15T02:18:55;11.40;99.90
8105;DHT22;4095;48.942;9.104;2024-02-15T02:21:21;11.30;99.90
8105;DHT22;4095;48.942;9.104;2024-02-15T02:23:52;11.30;99.90
8105;DHT22;4095;48.942;9.104;2024-02-15T02:26:20;11.30;99.90
8105;DHT22;4095;48.942;9.104;2024-02-15T02:28:47;11.20;99.90
8105;DHT22;4095;48.942;9.104;2024-02-15T02:31:12;11.20;99.90
8105;DHT22;4095;48.942;9.104;2024-02-15T02:33:38;11.20;99.90
8105;DHT22;4095;48.942;9.104;2024-02-15T02:36:04;11.20;99.90
8105;DHT22;4095;48.942;9.104;2024-02-15T02:38:35;11.20;99.90
8105;DHT22;4095;48.942;9.104;2024-02-15T02:41:03;11.20;99.90
8105;DHT22;4095;48.942;9.104;2024-02-15T02:43:28;11.20;99.90
8105;DHT22;4095;48.942;9.104;2024-02-15T02:45:54;11.10;99.90
8105;DHT22;4095;48.942;9.104;2024-02-15T02:48:20;11.10;99.90
8105;DHT22;4095;48.942;9.104;2024-02-15T02:50:45;11.00;99.90
8105;DHT22;4095;48.942;9.104;2024-02-15T02:53:11;11.00;99.90
8105;DHT22;4095;48.942;9.104;2024-02-15T02:55:40;11.00;99.90
8105;DHT22;4095;48.942;9.104;2024-02-15T02:58:06;11.00;99.90
8105;DHT22;4095;48.942;9.104;2024-02-15T03:00:33;10.90;99.90
8105;DHT22;4095;48.942;9.104;2024-02-15T03:02:59;10.90;99.90
8105;DHT22;4095;48.942;9.104;2024-02-15T03:05:25;10.90;99.90
8105;DHT22;4095;48.942;9.104;2024-02-15T03:07:51;10.90;99.90
8105;DHT22;4095;48.942;9.104;2024-02-15T03:10:17;10.90;99.90
8105;DHT22;4095;48.942;9.104;2024-02-15T03:12:44;10.90;99.90
8105;DHT22;4095;48.942;9.104;2024-02-15T03:15:12;11.00;99.90
8105;DHT22;4095;48.942;9.104;2024-02-15T03:17:42;11.00;99.90
8105;DHT22;4095;48.942;9.104;2024-02-15T03:20:10;11.20;99.90
8105;DHT22;4095;48.942;9.104;2024-02-15T03:22:57;11.20;99.90
8105;DHT22;4095;48.942;9.104;2024-02-15T03:25:24;11.30;99.90
8105;DHT22;4095;48.942;9.104;2024-02-15T03:27:54;11.30;99.90
8105;DHT22;4095;48.942;9.104;2024-02-15T03:30:22;11.30;99.90
8105;DHT22;4095;48.942;9.104;2024-02-15T03:32:48;11.30;99.90
8105;DHT22;4095;48.942;9.104;2024-02-15T03:35:18;11.40;99.90
8105;DHT22;4095;48.942;9.104;2024-02-15T03:37:44;11.40;99.90
8105;DHT22;4095;48.942;9.104;2024-02-15T03:40:10;11.50;99.90
8105;DHT22;4095;48.942;9.104;2024-02-15T03:42:36;11.50;99.90
8105;DHT22;4095;48.942;9.104;2024-02-15T03:45:05;11.60;99.90
8105;DHT22;4095;48.942;9.104;2024-02-15T03:47:34;11.60;99.90
8105;DHT22;4095;48.942;9.104;2024-02-15T03:50:02;11.60;99.90
8105;DHT22;4095;48.942;9.104;2024-02-15T03:52:27;11.60;99.90
8105;DHT22;4095;48.942;9.104;2024-02-15T03:54:55;11.60;99.90
8105;DHT22;4095;48.942;9.104;2024-02-15T03:57:22;11.60;99.90
8105;DHT22;4095;48.942;9.104;2024-02-15T03:59:48;11.70;99.90
8105;DHT22;4095;48.942;9.104;2024-02-15T04:02:20;11.70;99.90
8105;DHT22;4095;48.942;9.104;2024-02-15T04:04:49;11.80;99.90
8105;DHT22;4095;48.942;9.104;2024-02-15T04:07:15;11.80;99.90
8105;DHT22;4095;48.942;9.104;2024-02-15T04:09:42;11.80;99.90
8105;DHT22;4095;48.942;9.104;2024-02-15T04:12:08;11.80;99.90
8105;DHT22;4095;48.942;9.104;2024-02-15T04:14:33;11.80;99.90
8105;DHT22;4095;48.942;9.104;2024-02-15T04:17:00;11.80;99.90
8105;DHT22;4095;48.942;9.104;2024-02-15T04:19:27;11.90;99.90
8105;DHT22;4095;48.942;9.104;2024-02-15T04:21:52;11.80;99.90
8105;DHT22;4095;48.942;9.104;2024-02-15T04:24:21;11.90;99.90
8105;DHT22;4095;48.942;9.104;2024-02-15T04:26:47;11.90;99.90
8105;DHT22;4095;48.942;9.104;2024-02-15T04:29:14;11.80;99.90
8105;DHT22;4095;48.942;9.104;2024-02-15T04:31:40;11.90;99.90
8105;DHT22;4095;48.942;9.104;2024-02-15T04:34:08;11.90;99.90
8105;DHT22;4095;48.942;9.104;2024-02-15T04:36:35;11.90;99.90
8105;DHT22;4095;48.942;9.104;2024-02-15T04:39:01;11.80;99.90
8105;DHT22;4095;48.942;9.104;2024-02-15T04:41:30;11.90;99.90
8105;DHT22;4095;48.942;9.104;2024-02-15T04:43:55;11.90;99.90
8105;DHT22;4095;48.942;9.104;2024-02-15T04:46:22;11.90;99.90
8105;DHT22;4095;48.942;9.104;2024-02-15T04:48:48;12.00;99.90
8105;DHT22;4095;48.942;9.104;2024-02-15T04:51:17;11.90;99.90
8105;DHT22;4095;48.942;9.104;2024-02-15T04:53:45;12.00;99.90
8105;DHT22;4095;48.942;9.104;2024-02-15T04:56:12;12.00;99.90
8105;DHT22;4095;48.942;9.104;2024-02-15T04:58:42;12.10;99.90
8105;DHT22;4095;48.942;9.104;2024-02-15T05:01:17;12.10;99.90
8105;DHT22;4095;48.942;9.104;2024-02-15T05:03:43;12.10;99.90
8105;DHT22;4095;48.942;9.104;2024-02-15T05:06:09;12.10;99.90
8105;DHT22;4095;48.942;9.104;2024-02-15T05:08:36;12.10;99.90
8105;DHT22;4095;48.942;9.104;2024-02-15T05:11:11;12.20;99.90
8105;DHT22;4095;48.942;9.104;2024-02-15T05:13:46;12.20;99.90
8105;DHT22;4095;48.942;9.104;2024-02-15T05:16:12;12.20;99.90
8105;DHT22;4095;48.942;9.104;2024-02-15T05:18:38;12.20;99.90
8105;DHT22;4095;48.942;9.104;2024-02-15T05:21:06;12.30;99.90
8105;DHT22;4095;48.942;9.104;2024-02-15T05:23:40;12.30;99.90
8105;DHT22;4095;48.942;9.104;2024-02-15T05:26:08;12.30;99.90
8105;DHT22;4095;48.942;9.104;2024-02-15T05:28:33;12.30;99.90
8105;DHT22;4095;48.942;9.104;2024-02-15T05:31:29;12.30;99.90
8105;DHT22;4095;48.942;9.104;2024-02-15T05:33:55;12.30;99.90
8105;DHT22;4095;48.942;9.104;2024-02-15T05:36:21;12.30;99.90
8105;DHT22;4095;48.942;9.104;2024-02-15T05:38:53;12.40;99.90
8105;DHT22;4095;48.942;9.104;2024-02-15T05:41:19;12.40;99.90
8105;DHT22;4095;48.942;9.104;2024-02-15T05:43:46;12.30;99.90
8105;DHT22;4095;48.942;9.104;2024-02-15T05:46:13;12.30;99.90
8105;DHT22;4095;48.942;9.104;2024-02-15T05:48:39;12.40;99.90
8105;DHT22;4095;48.942;9.104;2024-02-15T05:51:06;12.40;99.90
8105;DHT22;4095;48.942;9.104;2024-02-15T05:53:33;12.40;99.90
8105;DHT22;4095;48.942;9.104;2024-02-15T05:56:07;12.40;99.90
8105;DHT22;4095;48.942;9.104;2024-02-15T05:58:34;12.40;99.90
8105;DHT22;4095;48.942;9.104;2024-02-15T06:01:01;12.40;99.90
8105;DHT22;4095;48.942;9.104;2024-02-15T06:03:30;12.40;99.90
8105;DHT22;4095;48.942;9.104;2024-02-15T06:05:59;12.40;99.90
8105;DHT22;4095;48.942;9.104;2024-02-15T06:08:28;12.40;99.90
8105;DHT22;4095;48.942;9.104;2024-02-15T06:10:55;12.40;99.90
8105;DHT22;4095;48.942;9.104;2024-02-15T06:13:22;12.40;99.90
8105;DHT22;4095;48.942;9.104;2024-02-15T06:15:48;12.40;99.90
8105;DHT22;4095;48.942;9.104;2024-02-15T06:18:18;12.40;99.90
8105;DHT22;4095;48.942;9.104;2024-02-15T06:20:49;12.40;99.90
8105;DHT22;4095;48.942;9.104;2024-02-15T06:23:22;12.40;99.90
8105;DHT22;4095;48.942;9.104;2024-02-15T06:25:50;12.40;99.90
8105;DHT22;4095;48.942;9.104;2024-02-15T06:28:16;12.40;99.90
8105;DHT22;4095;48.942;9.104;2024-02-15T06:31:05;12.40;99.90
8105;DHT22;4095;48.942;9.104;2024-02-15T06:33:50;12.50;99.90
8105;DHT22;4095;48.942;9.104;2024-02-15T06:36:34;12.40;99.90
8105;DHT22;4095;48.942;9.104;2024-02-15T06:39:17;12.40;99.90
8105;DHT22;4095;48.942;9.104;2024-02-15T06:42:02;12.50;99.90
8105;DHT22;4095;48.942;9.104;2024-02-15T06:44:28;12.50;99.90
8105;DHT22;4095;48.942;9.104;2024-02-15T06:46:53;12.50;99.90
8105;DHT22;4095;48.942;9.104;2024-02-15T06:49:20;12.50;99.90
8105;DHT22;4095;48.942;9.104;2024-02-15T06:51:49;12.50;99.90
8105;DHT22;4095;48.942;9.104;2024-02-15T06:54:14;12.50;99.90
8105;DHT22;4095;48.942;9.104;2024-02-15T06:56:40;12.60;99.90
8105;DHT22;4095;48.942;9.104;2024-02-15T06:59:06;12.60;99.90
8105;DHT22;4095;48.942;9.104;2024-02-15T07:01:32;12.60;99.90
8105;DHT22;4095;48.942;9.104;2024-02-15T07:03:59;12.60;99.90
8105;DHT22;4095;48.942;9.104;2024-02-15T07:06:26;12.70;99.90
8105;DHT22;4095;48.942;9.104;2024-02-15T07:08:52;12.70;99.90
8105;DHT22;4095;48.942;9.104;2024-02-15T07:11:20;12.70;99.90
8105;DHT22;4095;48.942;9.104;2024-02-15T07:13:47;12.80;99.90
8105;DHT22;4095;48.942;9.104;2024-02-15T07:16:13;12.80;99.90
8105;DHT22;4095;48.942;9.104;2024-02-15T07:18:40;12.90;99.90
8105;DHT22;4095;48.942;9.104;2024-02-15T07:21:06;12.90;99.90
8105;DHT22;4095;48.942;9.104;2024-02-15T07:23:39;13.00;99.90
8105;DHT22;4095;48.942;9.104;2024-02-15T07:26:06;13.00;99.90
8105;DHT22;4095;48.942;9.104;2024-02-15T07:28:33;13.10;99.90
8105;DHT22;4095;48.942;9.104;2024-02-15T07:30:59;13.20;99.90
8105;DHT22;4095;48.942;9.104;2024-02-15T07:33:28;13.20;99.90
8105;DHT22;4095;48.942;9.104;2024-02-15T07:35:54;13.40;99.90
8105;DHT22;4095;48.942;9.104;2024-02-15T07:38:20;13.50;99.90
8105;DHT22;4095;48.942;9.104;2024-02-15T07:40:48;13.60;99.90
8105;DHT22;4095;48.942;9.104;2024-02-15T07:43:15;13.80;99.90
8105;DHT22;4095;48.942;9.104;2024-02-15T07:45:40;13.80;99.90
8105;DHT22;4095;48.942;9.104;2024-02-15T07:48:06;13.90;99.90
8105;DHT22;4095;48.942;9.104;2024-02-15T07:50:32;14.00;99.90
8105;DHT22;4095;48.942;9.104;2024-02-15T07:52:57;14.10;99.90
8105;DHT22;4095;48.942;9.104;2024-02-15T07:55:23;14.10;99.90
8105;DHT22;4095;48.942;9.104;2024-02-15T07:57:50;14.30;99.90
8105;DHT22;4095;48.942;9.104;2024-02-15T08:00:17;14.30;99.90
8105;DHT22;4095;48.942;9.104;2024-02-15T08:02:43;14.30;99.90
8105;DHT22;4095;48.942;9.104;2024-02-15T08:05:12;14.40;99.90
8105;DHT22;4095;48.942;9.104;2024-02-15T08:07:44;14.50;99.90
8105;DHT22;4095;48.942;9.104;2024-02-15T08:10:10;14.60;99.90
8105;DHT22;4095;48.942;9.104;2024-02-15T08:12:43;14.70;99.90
8105;DHT22;4095;48.942;9.104;2024-02-15T08:15:09;14.80;99.90
8105;DHT22;4095;48.942;9.104;2024-02-15T08:17:42;14.80;99.90
8105;DHT22;4095;48.942;9.104;2024-02-15T08:20:10;14.80;99.90
8105;DHT22;4095;48.942;9.104;2024-02-15T08:22:36;15.00;99.90
8105;DHT22;4095;48.942;9.104;2024-02-15T08:25:10;14.90;99.90
8105;DHT22;4095;48.942;9.104;2024-02-15T08:27:39;14.90;99.90
8105;DHT22;4095;48.942;9.104;2024-02-15T08:30:10;15.00;99.90
8105;DHT22;4095;48.942;9.104;2024-02-15T08:32:39;15.00;99.90
8105;DHT22;4095;48.942;9.104;2024-02-15T08:35:07;15.10;99.90
8105;DHT22;4095;48.942;9.104;2024-02-15T08:37:34;15.10;99.90
8105;DHT22;4095;48.942;9.104;2024-02-15T08:40:04;15.20;99.90
8105;DHT22;4095;48.942;9.104;2024-02-15T08:42:39;15.20;99.90
8105;DHT22;4095;48.942;9.104;2024-02-15T08:45:05;15.30;99.90
8105;DHT22;4095;48.942;9.104;2024-02-15T08:47:37;15.30;99.90
8105;DHT22;4095;48.942;9.104;2024-02-15T08:50:03;15.40;99.90
8105;DHT22;4095;48.942;9.104;2024-02-15T08:52:29;15.40;99.90
8105;DHT22;4095;48.942;9.104;2024-02-15T08:54:56;15.50;99.90
8105;DHT22;4095;48.942;9.104;2024-02-15T08:57:23;15.60;99.90
8105;DHT22;4095;48.942;9.104;2024-02-15T08:59:49;15.60;99.90
8105;DHT22;4095;48.942;9.104;2024-02-15T09:02:17;15.70;99.90
8105;DHT22;4095;48.942;9.104;2024-02-15T09:04:43;15.80;99.90
8105;DHT22;4095;48.942;9.104;2024-02-15T09:07:08;15.90;99.90
8105;DHT22;4095;48.942;9.104;2024-02-15T09:09:35;16.00;99.90
8105;DHT22;4095;48.942;9.104;2024-02-15T09:12:02;16.00;99.90
8105;DHT22;4095;48.942;9.104;2024-02-15T09:14:34;16.10;99.90
8105;DHT22;4095;48.942;9.104;2024-02-15T09:17:04;16.20;99.90
8105;DHT22;4095;48.942;9.104;2024-02-15T09:19:36;16.20;99.90
8105;DHT22;4095;48.942;9.104;2024-02-15T09:22:02;16.30;99.90
8105;DHT22;4095;48.942;9.104;2024-02-15T09:24:32;16.40;99.90
8105;DHT22;4095;48.942;9.104;2024-02-15T09:27:02;16.60;99.90
8105;DHT22;4095;48.942;9.104;2024-02-15T09:29:28;16.70;99.90
8105;DHT22;4095;48.942;9.104;2024-02-15T09:31:55;16.80;99.90
8105;DHT22;4095;48.942;9.104;2024-02-15T09:34:22;16.80;99.90
8105;DHT22;4095;48.942;9.104;2024-02-15T09:36:48;16.90;99.90
8105;DHT22;4095;48.942;9.104;2024-02-15T09:39:14;17.00;99.90
8105;DHT22;4095;48.942;9.104;2024-02-15T09:41:40;17.10;99.90
8105;DHT22;4095;48.942;9.104;2024-02-15T09:44:08;17.20;99.90
8105;DHT22;4095;48.942;9.104;2024-02-15T09:46:42;17.20;99.90
8105;DHT22;4095;48.942;9.104;2024-02-15T09:49:11;17.40;99.90
8105;DHT22;4095;48.942;9.104;2024-02-15T09:51:38;17.50;99.90
8105;DHT22;4095;48.942;9.104;2024-02-15T09:54:06;17.70;99.90
8105;DHT22;4095;48.942;9.104;2024-02-15T09:56:35;17.80;99.90
8105;DHT22;4095;48.942;9.104;2024-02-15T09:59:01;17.90;99.90
8105;DHT22;4095;48.942;9.104;2024-02-15T10:01:31;17.90;99.90
8105;DHT22;4095;48.942;9.104;2024-02-15T10:03:58;18.00;99.90
8105;DHT22;4095;48.942;9.104;2024-02-15T10:06:25;18.10;99.90
8105;DHT22;4095;48.942;9.104;2024-02-15T10:08:52;18.20;99.90
8105;DHT22;4095;48.942;9.104;2024-02-15T10:11:18;18.30;99.90
8105;DHT22;4095;48.942;9.104;2024-02-15T10:13:45;18.40;99.90
8105;DHT22;4095;48.942;9.104;2024-02-15T10:16:18;18.60;99.90
8105;DHT22;4095;48.942;9.104;2024-02-15T10:18:45;18.80;99.90
8105;DHT22;4095;48.942;9.104;2024-02-15T10:21:24;19.10;99.90
8105;DHT22;4095;48.942;9.104;2024-02-15T10:24:04;19.50;99.80
8105;DHT22;4095;48.942;9.104;2024-02-15T10:26:30;19.70;99.40
8105;DHT22;4095;48.942;9.104;2024-02-15T10:29:07;19.80;98.80
8105;DHT22;4095;48.942;9.104;2024-02-15T10:31:34;20.10;98.70
8105;DHT22;4095;48.942;9.104;2024-02-15T10:34:07;20.50;98.40
8105;DHT22;4095;48.942;9.104;2024-02-15T10:36:34;20.90;98.00
8105;DHT22;4095;48.942;9.104;2024-02-15T10:39:16;21.40;97.40
8105;DHT22;4095;48.942;9.104;2024-02-15T10:41:52;21.90;96.20
8105;DHT22;4095;48.942;9.104;2024-02-15T10:44:19;22.70;96.30
8105;DHT22;4095;48.942;9.104;2024-02-15T10:46:52;23.30;95.20
8105;DHT22;4095;48.942;9.104;2024-02-15T10:51:44;24.70;94.00
8105;DHT22;4095;48.942;9.104;2024-02-15T10:54:18;25.40;92.70
8105;DHT22;4095;48.942;9.104;2024-02-15T10:56:44;26.40;91.80
8105;DHT22;4095;48.942;9.104;2024-02-15T10:59:18;27.30;90.50
8105;DHT22;4095;48.942;9.104;2024-02-15T11:01:46;28.00;89.10
8105;DHT22;4095;48.942;9.104;2024-02-15T11:04:20;28.40;86.40
8105;DHT22;4095;48.942;9.104;2024-02-15T11:06:48;28.80;84.70
8105;DHT22;4095;48.942;9.104;2024-02-15T11:09:16;29.50;83.60
8105;DHT22;4095;48.942;9.104;2024-02-15T11:11:42;30.10;82.10
8105;DHT22;4095;48.942;9.104;2024-02-15T11:16:50;30.70;79.50
8105;DHT22;4095;48.942;9.104;2024-02-15T11:19:45;31.00;78.30
8105;DHT22;4095;48.942;9.104;2024-02-15T11:22:15;31.10;77.30
8105;DHT22;4095;48.942;9.104;2024-02-15T11:24:52;31.40;77.10
8105;DHT22;4095;48.942;9.104;2024-02-15T11:27:28;31.90;75.50
8105;DHT22;4095;48.942;9.104;2024-02-15T11:30:01;32.20;73.60
8105;DHT22;4095;48.942;9.104;2024-02-15T11:32:50;32.10;71.20
8105;DHT22;4095;48.942;9.104;2024-02-15T11:35:25;31.80;72.00
8105;DHT22;4095;48.942;9.104;2024-02-15T11:37:57;31.40;73.10
8105;DHT22;4095;48.942;9.104;2024-02-15T11:43:36;30.80;72.60
8105;DHT22;4095;48.942;9.104;2024-02-15T11:45:58;30.40;72.70
8105;DHT22;4095;48.942;9.104;2024-02-15T11:48:24;29.90;75.80
8105;DHT22;4095;48.942;9.104;2024-02-15T11:50:49;29.60;75.70
8105;DHT22;4095;48.942;9.104;2024-02-15T11:53:15;29.50;76.00
8105;DHT22;4095;48.942;9.104;2024-02-15T11:55:41;29.50;74.10
8105;DHT22;4095;48.942;9.104;2024-02-15T11:58:08;29.50;75.00
8105;DHT22;4095;48.942;9.104;2024-02-15T12:00:34;29.30;74.90
8105;DHT22;4095;48.942;9.104;2024-02-15T12:03:21;29.40;76.00
8105;DHT22;4095;48.942;9.104;2024-02-15T12:06:05;29.60;74.20
8105;DHT22;4095;48.942;9.104;2024-02-15T12:08:52;29.80;74.10
8105;DHT22;4095;48.942;9.104;2024-02-15T12:11:36;29.70;74.20
8105;DHT22;4095;48.942;9.104;2024-02-15T12:14:21;29.30;76.40
8105;DHT22;4095;48.942;9.104;2024-02-15T12:17:06;29.30;76.10
8105;DHT22;4095;48.942;9.104;2024-02-15T12:19:52;29.10;77.00
8105;DHT22;4095;48.942;9.104;2024-02-15T12:25:19;27.40;78.20
8105;DHT22;4095;48.942;9.104;2024-02-15T12:27:52;26.00;80.10
8105;DHT22;4095;48.942;9.104;2024-02-15T12:30:19;25.10;80.80
8105;DHT22;4095;48.942;9.104;2024-02-15T12:32:48;24.20;81.60
8105;DHT22;4095;48.942;9.104;2024-02-15T12:35:16;23.60;83.80
8105;DHT22;4095;48.942;9.104;2024-02-15T12:40:31;23.70;85.60
8105;DHT22;4095;48.942;9.104;2024-02-15T12:42:57;24.10;84.50
8105;DHT22;4095;48.942;9.104;2024-02-15T12:45:25;24.40;84.00
8105;DHT22;4095;48.942;9.104;2024-02-15T12:47:54;24.60;84.10
8105;DHT22;4095;48.942;9.104;2024-02-15T12:50:21;24.90;84.40
8105;DHT22;4095;48.942;9.104;2024-02-15T12:52:50;25.00;83.30
8105;DHT22;4095;48.942;9.104;2024-02-15T12:55:18;25.00;82.90
8105;DHT22;4095;48.942;9.104;2024-02-15T12:57:49;25.10;83.50
8105;DHT22;4095;48.942;9.104;2024-02-15T13:00:25;25.40;83.70
8105;DHT22;4095;48.942;9.104;2024-02-15T13:02:55;25.50;83.50
8105;DHT22;4095;48.942;9.104;2024-02-15T13:05:21;25.50;81.50
8105;DHT22;4095;48.942;9.104;2024-02-15T13:07:49;25.30;83.90
8105;DHT22;4095;48.942;9.104;2024-02-15T13:10:14;25.30;83.60
8105;DHT22;4095;48.942;9.104;2024-02-15T13:12:43;25.10;82.60
8105;DHT22;4095;48.942;9.104;2024-02-15T13:15:11;25.00;82.80
8105;DHT22;4095;48.942;9.104;2024-02-15T13:17:43;24.80;84.30
8105;DHT22;4095;48.942;9.104;2024-02-15T13:20:10;24.70;86.00
8105;DHT22;4095;48.942;9.104;2024-02-15T13:22:42;24.50;85.40
8105;DHT22;4095;48.942;9.104;2024-02-15T13:25:09;24.10;86.70
8105;DHT22;4095;48.942;9.104;2024-02-15T13:27:36;23.70;85.70
8105;DHT22;4095;48.942;9.104;2024-02-15T13:30:04;23.40;88.10
8105;DHT22;4095;48.942;9.104;2024-02-15T13:32:35;23.20;88.90
8105;DHT22;4095;48.942;9.104;2024-02-15T13:35:03;22.90;89.90
8105;DHT22;4095;48.942;9.104;2024-02-15T13:37:33;22.70;89.30
8105;DHT22;4095;48.942;9.104;2024-02-15T13:39:58;22.50;90.10
8105;DHT22;4095;48.942;9.104;2024-02-15T13:42:24;22.40;90.30
8105;DHT22;4095;48.942;9.104;2024-02-15T13:44:50;22.40;90.90
8105;DHT22;4095;48.942;9.104;2024-02-15T13:47:15;22.40;90.80
8105;DHT22;4095;48.942;9.104;2024-02-15T13:49:42;22.30;90.80
8105;DHT22;4095;48.942;9.104;2024-02-15T13:52:08;22.30;90.80
8105;DHT22;4095;48.942;9.104;2024-02-15T13:54:36;22.40;91.60
8105;DHT22;4095;48.942;9.104;2024-02-15T13:57:03;22.40;91.40
8105;DHT22;4095;48.942;9.104;2024-02-15T13:59:29;22.40;91.60
8105;DHT22;4095;48.942;9.104;2024-02-15T14:01:55;22.30;91.60
8105;DHT22;4095;48.942;9.104;2024-02-15T14:04:20;22.20;91.20
8105;DHT22;4095;48.942;9.104;2024-02-15T14:06:47;22.00;91.70
8105;DHT22;4095;48.942;9.104;2024-02-15T14:09:14;22.00;92.20
8105;DHT22;4095;48.942;9.104;2024-02-15T14:11:40;21.90;92.10
8105;DHT22;4095;48.942;9.104;2024-02-15T14:14:06;21.80;92.40
8105;DHT22;4095;48.942;9.104;2024-02-15T14:16:31;21.70;91.90
8105;DHT22;4095;48.942;9.104;2024-02-15T14:18:58;21.70;92.40
8105;DHT22;4095;48.942;9.104;2024-02-15T14:21:24;21.60;92.40
8105;DHT22;4095;48.942;9.104;2024-02-15T14:23:50;21.50;93.00
8105;DHT22;4095;48.942;9.104;2024-02-15T14:26:16;21.50;93.00
8105;DHT22;4095;48.942;9.104;2024-02-15T14:28:43;21.50;93.10
8105;DHT22;4095;48.942;9.104;2024-02-15T14:31:11;21.40;93.20
8105;DHT22;4095;48.942;9.104;2024-02-15T14:33:55;21.30;93.30
8105;DHT22;4095;48.942;9.104;2024-02-15T14:36:21;21.30;93.40
8105;DHT22;4095;48.942;9.104;2024-02-15T14:38:47;21.20;93.20
8105;DHT22;4095;48.942;9.104;2024-02-15T14:41:12;21.20;93.60
8105;DHT22;4095;48.942;9.104;2024-02-15T14:43:39;21.20;93.10
8105;DHT22;4095;48.942;9.104;2024-02-15T14:46:05;21.20;93.70
8105;DHT22;4095;48.942;9.104;2024-02-15T14:48:33;21.00;93.50
8105;DHT22;4095;48.942;9.104;2024-02-15T14:50:59;21.00;94.00
8105;DHT22;4095;48.942;9.104;2024-02-15T14:53:25;21.00;94.10
8105;DHT22;4095;48.942;9.104;2024-02-15T14:55:52;20.90;93.50
8105;DHT22;4095;48.942;9.104;2024-02-15T14:58:19;20.80;93.50
8105;DHT22;4095;48.942;9.104;2024-02-15T15:00:45;20.90;93.80
8105;DHT22;4095;48.942;9.104;2024-02-15T15:03:14;20.90;93.60
8105;DHT22;4095;48.942;9.104;2024-02-15T15:05:41;20.90;93.50
8105;DHT22;4095;48.942;9.104;2024-02-15T15:08:25;20.80;94.00
8105;DHT22;4095;48.942;9.104;2024-02-15T15:11:09;20.80;93.70
8105;DHT22;4095;48.942;9.104;2024-02-15T15:13:53;20.80;94.10
8105;DHT22;4095;48.942;9.104;2024-02-15T15:16:19;20.80;94.50
8105;DHT22;4095;48.942;9.104;2024-02-15T15:18:49;20.70;94.30
8105;DHT22;4095;48.942;9.104;2024-02-15T15:21:18;20.60;94.90
8105;DHT22;4095;48.942;9.104;2024-02-15T15:23:44;20.60;95.00
8105;DHT22;4095;48.942;9.104;2024-02-15T15:26:11;20.40;94.80
8105;DHT22;4095;48.942;9.104;2024-02-15T15:28:39;20.30;95.00
8105;DHT22;4095;48.942;9.104;2024-02-15T15:31:05;20.30;95.10
8105;DHT22;4095;48.942;9.104;2024-02-15T15:33:32;20.20;95.10
8105;DHT22;4095;48.942;9.104;2024-02-15T15:36:02;20.20;95.00
8105;DHT22;4095;48.942;9.104;2024-02-15T15:38:31;20.10;95.00
8105;DHT22;4095;48.942;9.104;2024-02-15T15:40:56;20.10;95.00
8105;DHT22;4095;48.942;9.104;2024-02-15T15:43:23;20.00;95.70
8105;DHT22;4095;48.942;9.104;2024-02-15T15:45:49;19.90;96.30
8105;DHT22;4095;48.942;9.104;2024-02-15T15:48:16;19.80;96.90
8105;DHT22;4095;48.942;9.104;2024-02-15T15:50:42;19.70;97.50
8105;DHT22;4095;48.942;9.104;2024-02-15T15:53:09;19.70;97.30
8105;DHT22;4095;48.942;9.104;2024-02-15T15:55:37;19.60;97.60
8105;DHT22;4095;48.942;9.104;2024-02-15T15:58:03;19.40;97.50
8105;DHT22;4095;48.942;9.104;2024-02-15T16:00:31;19.40;97.70
8105;DHT22;4095;48.942;9.104;2024-02-15T16:03:00;19.40;97.50
8105;DHT22;4095;48.942;9.104;2024-02-15T16:05:27;19.30;97.40
8105;DHT22;4095;48.942;9.104;2024-02-15T16:07:52;19.20;97.90
8105;DHT22;4095;48.942;9.104;2024-02-15T16:10:18;19.20;97.60
8105;DHT22;4095;48.942;9.104;2024-02-15T16:12:46;19.10;97.50
8105;DHT22;4095;48.942;9.104;2024-02-15T16:15:12;19.10;97.20
8105;DHT22;4095;48.942;9.104;2024-02-15T16:17:45;19.00;97.50
8105;DHT22;4095;48.942;9.104;2024-02-15T16:20:11;19.00;98.10
8105;DHT22;4095;48.942;9.104;2024-02-15T16:22:40;18.90;98.40
8105;DHT22;4095;48.942;9.104;2024-02-15T16:25:07;18.70;98.90